Shinkomaru No.8 — JK5142 — position and weather

sailwx.info

Track history (hours):
 
Tides and Currents Weather Stations Pressure Air Temp Water Temp Dewpoint Dewpoint Depression Visibility Wind Speed Wind Dir Waves Ship Positions

Shinkomaru No.8

Last reported at 2015-Jul-14 03:18 UTC. Time now 2015-Jul-31 21:29 UTC.
Position N 34°40' E 134°48'.
Warning: this ship's position is 17 days out of date.

Length 61 m; draft 4 m.

Type: Tanker. MMSI: 431400035.

Date/timePositionNaut miles runAvg speedWind from/ knotsBaromVisibWave heightAir tempDewpointWater temp
2015-Jul-14 03:18N 34°40' E 134°48'7 9.8
2015-Jul-14 02:33N 34°38' E 134°56'8 8.4
2015-Jul-14 01:33N 34°33' E 135°05'2512.4
2015-Jul-13 23:32N 34°08' E 135°00'3 0.1
2015-Jul-12 09:33N 34°06' E 134°59'1510.7
2015-Jul-12 08:09N 34°21' E 134°60'711.2
2015-Jul-12 07:33N 34°27' E 135°01'9 9.5
2015-Jul-12 06:33N 34°37' E 135°01'1110.4
2015-Jul-12 05:28N 34°40' E 134°48'5 0.2
2015-Jul-11 08:31N 34°37' E 134°53'1111.7
2015-Jul-11 07:33N 34°32' E 135°05'1513.3
2015-Jul-11 06:28N 34°17' E 135°04'4 4.6
2015-Jul-11 05:33N 34°14' E 135°07'0 0.0
2015-Jul-11 04:21N 34°14' E 135°07'0 0.0
2015-Jul-11 03:33N 34°14' E 135°07'0 0.0
2015-Jul-11 02:33N 34°14' E 135°07'0 0.0
2015-Jul-11 01:33N 34°14' E 135°07'0 0.0
2015-Jul-11 00:33N 34°14' E 135°07'0 0.0
2015-Jul-10 23:32N 34°14' E 135°07'0 0.0
2015-Jul-10 22:32N 34°14' E 135°07'1 0.8
2015-Jul-10 21:33N 34°15' E 135°06'0 0.0
2015-Jul-10 20:33N 34°15' E 135°06'0 0.0
2015-Jul-10 19:32N 34°15' E 135°06'0 0.0
2015-Jul-10 18:32N 34°15' E 135°06'0 0.0
2015-Jul-10 17:32N 34°15' E 135°06'0 0.0
2015-Jul-10 16:33N 34°15' E 135°06'  
Track history (hours):
 
Tides and Currents Weather Stations Pressure Air Temp Water Temp Dewpoint Dewpoint Depression Visibility Wind Speed Wind Dir Waves Ship Positions

Shinkomaru No.8

Last reported at 2015-Jul-14 03:18 UTC. Time now 2015-Jul-31 21:29 UTC.
Position N 34°40' E 134°48'.
Warning: this ship's position is 17 days out of date.

Length 61 m; draft 4 m.

Type: Tanker. MMSI: 431400035.

Date/timePositionNaut miles runAvg speedWind from/ knotsBaromVisibWave heightAir tempDewpointWater temp
2015-Jul-14 03:18N 34°40' E 134°48'7 9.8
2015-Jul-14 02:33N 34°38' E 134°56'8 8.4
2015-Jul-14 01:33N 34°33' E 135°05'2512.4
2015-Jul-13 23:32N 34°08' E 135°00'3 0.1
2015-Jul-12 09:33N 34°06' E 134°59'1510.7
2015-Jul-12 08:09N 34°21' E 134°60'711.2
2015-Jul-12 07:33N 34°27' E 135°01'9 9.5
2015-Jul-12 06:33N 34°37' E 135°01'1110.4
2015-Jul-12 05:28N 34°40' E 134°48'5 0.2
2015-Jul-11 08:31N 34°37' E 134°53'1111.7
2015-Jul-11 07:33N 34°32' E 135°05'1513.3
2015-Jul-11 06:28N 34°17' E 135°04'4 4.6
2015-Jul-11 05:33N 34°14' E 135°07'0 0.0
2015-Jul-11 04:21N 34°14' E 135°07'0 0.0
2015-Jul-11 03:33N 34°14' E 135°07'0 0.0
2015-Jul-11 02:33N 34°14' E 135°07'0 0.0
2015-Jul-11 01:33N 34°14' E 135°07'0 0.0
2015-Jul-11 00:33N 34°14' E 135°07'0 0.0
2015-Jul-10 23:32N 34°14' E 135°07'0 0.0
2015-Jul-10 22:32N 34°14' E 135°07'1 0.8
2015-Jul-10 21:33N 34°15' E 135°06'0 0.0
2015-Jul-10 20:33N 34°15' E 135°06'0 0.0
2015-Jul-10 19:32N 34°15' E 135°06'0 0.0
2015-Jul-10 18:32N 34°15' E 135°06'0 0.0
2015-Jul-10 17:32N 34°15' E 135°06'0 0.0
2015-Jul-10 16:33N 34°15' E 135°06'  

Dump ship's entire track history